sensor_id;sensor_type;location;lat;lon;timestamp;P1;durP1;ratioP1;P2;durP2;ratioP2
8562;SDS011;16392;52.508;13.468;2023-08-20T00:02:22;725.67;;;661.03;;
8562;SDS011;16392;52.508;13.468;2023-08-20T00:04:49;714.33;;;650.08;;
8562;SDS011;16392;52.508;13.468;2023-08-20T00:07:17;720.53;;;656.03;;
8562;SDS011;16392;52.508;13.468;2023-08-20T00:09:44;745.55;;;680.13;;
8562;SDS011;16392;52.508;13.468;2023-08-20T00:12:11;717.47;;;652.75;;
8562;SDS011;16392;52.508;13.468;2023-08-20T00:14:55;723.72;;;659.05;;
8562;SDS011;16392;52.508;13.468;2023-08-20T00:17:24;697.58;;;633.05;;
8562;SDS011;16392;52.508;13.468;2023-08-20T00:19:52;717.20;;;652.30;;
8562;SDS011;16392;52.508;13.468;2023-08-20T00:22:20;728.97;;;664.25;;
8562;SDS011;16392;52.508;13.468;2023-08-20T00:24:48;702.90;;;638.67;;
8562;SDS011;16392;52.508;13.468;2023-08-20T00:27:15;711.15;;;646.92;;
8562;SDS011;16392;52.508;13.468;2023-08-20T00:29:41;723.30;;;658.75;;
8562;SDS011;16392;52.508;13.468;2023-08-20T00:32:09;709.70;;;645.58;;
8562;SDS011;16392;52.508;13.468;2023-08-20T00:34:36;735.60;;;670.33;;
8562;SDS011;16392;52.508;13.468;2023-08-20T00:37:03;735.63;;;670.15;;
8562;SDS011;16392;52.508;13.468;2023-08-20T00:39:29;714.88;;;650.30;;
8562;SDS011;16392;52.508;13.468;2023-08-20T00:41:56;706.53;;;642.05;;
8562;SDS011;16392;52.508;13.468;2023-08-20T00:44:23;704.63;;;640.38;;
8562;SDS011;16392;52.508;13.468;2023-08-20T00:46:50;731.72;;;666.65;;
8562;SDS011;16392;52.508;13.468;2023-08-20T00:49:18;702.97;;;638.78;;
8562;SDS011;16392;52.508;13.468;2023-08-20T00:51:45;726.17;;;660.95;;
8562;SDS011;16392;52.508;13.468;2023-08-20T00:54:11;711.88;;;647.22;;
8562;SDS011;16392;52.508;13.468;2023-08-20T00:56:38;722.70;;;657.88;;
8562;SDS011;16392;52.508;13.468;2023-08-20T00:59:05;719.58;;;654.80;;
8562;SDS011;16392;52.508;13.468;2023-08-20T01:01:32;716.03;;;651.20;;
8562;SDS011;16392;52.508;13.468;2023-08-20T01:03:58;710.75;;;646.15;;
8562;SDS011;16392;52.508;13.468;2023-08-20T01:06:28;708.08;;;643.58;;
8562;SDS011;16392;52.508;13.468;2023-08-20T01:09:06;701.58;;;636.53;;
8562;SDS011;16392;52.508;13.468;2023-08-20T01:11:42;701.53;;;637.30;;
8562;SDS011;16392;52.508;13.468;2023-08-20T01:14:16;731.90;;;666.78;;
8562;SDS011;16392;52.508;13.468;2023-08-20T01:16:44;712.25;;;647.67;;
8562;SDS011;16392;52.508;13.468;2023-08-20T01:19:15;719.92;;;655.33;;
8562;SDS011;16392;52.508;13.468;2023-08-20T01:21:47;699.53;;;635.72;;
8562;SDS011;16392;52.508;13.468;2023-08-20T01:24:28;718.53;;;653.58;;
8562;SDS011;16392;52.508;13.468;2023-08-20T01:27:10;721.30;;;656.88;;
8562;SDS011;16392;52.508;13.468;2023-08-20T01:30:01;702.95;;;638.38;;
8562;SDS011;16392;52.508;13.468;2023-08-20T01:32:29;724.33;;;659.45;;
8562;SDS011;16392;52.508;13.468;2023-08-20T01:34:55;709.65;;;645.88;;
8562;SDS011;16392;52.508;13.468;2023-08-20T01:37:22;704.60;;;640.35;;
8562;SDS011;16392;52.508;13.468;2023-08-20T01:39:49;694.20;;;630.30;;
8562;SDS011;16392;52.508;13.468;2023-08-20T01:42:16;725.30;;;660.35;;
8562;SDS011;16392;52.508;13.468;2023-08-20T01:44:42;704.33;;;640.25;;
8562;SDS011;16392;52.508;13.468;2023-08-20T01:47:10;720.45;;;655.75;;
8562;SDS011;16392;52.508;13.468;2023-08-20T01:49:37;707.55;;;643.40;;
8562;SDS011;16392;52.508;13.468;2023-08-20T01:52:04;680.25;;;616.70;;
8562;SDS011;16392;52.508;13.468;2023-08-20T01:54:31;699.72;;;635.25;;
8562;SDS011;16392;52.508;13.468;2023-08-20T01:56:57;670.50;;;607.72;;
8562;SDS011;16392;52.508;13.468;2023-08-20T01:59:24;686.08;;;622.25;;
8562;SDS011;16392;52.508;13.468;2023-08-20T02:01:50;677.55;;;614.55;;
8562;SDS011;16392;52.508;13.468;2023-08-20T02:04:18;671.83;;;608.75;;
8562;SDS011;16392;52.508;13.468;2023-08-20T02:06:45;677.78;;;614.55;;
8562;SDS011;16392;52.508;13.468;2023-08-20T02:09:12;675.30;;;611.72;;
8562;SDS011;16392;52.508;13.468;2023-08-20T02:11:38;711.03;;;646.38;;
8562;SDS011;16392;52.508;13.468;2023-08-20T02:14:05;668.13;;;604.95;;
8562;SDS011;16392;52.508;13.468;2023-08-20T02:16:32;693.97;;;630.03;;
8562;SDS011;16392;52.508;13.468;2023-08-20T02:18:58;676.55;;;613.03;;
8562;SDS011;16392;52.508;13.468;2023-08-20T02:21:28;692.40;;;628.50;;
8562;SDS011;16392;52.508;13.468;2023-08-20T02:23:55;687.08;;;623.03;;
8562;SDS011;16392;52.508;13.468;2023-08-20T02:26:21;683.95;;;619.95;;
8562;SDS011;16392;52.508;13.468;2023-08-20T02:28:48;679.22;;;615.53;;
8562;SDS011;16392;52.508;13.468;2023-08-20T02:31:15;659.50;;;596.47;;
8562;SDS011;16392;52.508;13.468;2023-08-20T02:33:41;696.42;;;631.65;;
8562;SDS011;16392;52.508;13.468;2023-08-20T02:36:08;663.70;;;601.05;;
8562;SDS011;16392;52.508;13.468;2023-08-20T02:38:36;678.38;;;614.78;;
8562;SDS011;16392;52.508;13.468;2023-08-20T02:41:02;660.70;;;597.65;;
8562;SDS011;16392;52.508;13.468;2023-08-20T02:43:29;668.03;;;604.53;;
8562;SDS011;16392;52.508;13.468;2023-08-20T02:45:55;666.10;;;602.47;;
8562;SDS011;16392;52.508;13.468;2023-08-20T02:48:22;708.60;;;643.40;;
8562;SDS011;16392;52.508;13.468;2023-08-20T02:50:52;648.15;;;585.47;;
8562;SDS011;16392;52.508;13.468;2023-08-20T02:53:18;667.08;;;603.35;;
8562;SDS011;16392;52.508;13.468;2023-08-20T02:55:46;670.00;;;606.70;;
8562;SDS011;16392;52.508;13.468;2023-08-20T02:58:13;674.92;;;611.63;;
8562;SDS011;16392;52.508;13.468;2023-08-20T03:00:39;659.75;;;596.30;;
8562;SDS011;16392;52.508;13.468;2023-08-20T03:03:07;679.13;;;615.30;;
8562;SDS011;16392;52.508;13.468;2023-08-20T03:05:34;683.58;;;620.08;;
8562;SDS011;16392;52.508;13.468;2023-08-20T03:08:01;657.85;;;594.75;;
8562;SDS011;16392;52.508;13.468;2023-08-20T03:10:29;673.17;;;609.65;;
8562;SDS011;16392;52.508;13.468;2023-08-20T03:12:58;681.75;;;617.95;;
8562;SDS011;16392;52.508;13.468;2023-08-20T03:15:25;665.65;;;602.33;;
8562;SDS011;16392;52.508;13.468;2023-08-20T03:17:52;656.35;;;593.15;;
8562;SDS011;16392;52.508;13.468;2023-08-20T03:20:19;676.97;;;612.97;;
8562;SDS011;16392;52.508;13.468;2023-08-20T03:22:45;679.05;;;615.25;;
8562;SDS011;16392;52.508;13.468;2023-08-20T03:25:12;674.83;;;611.08;;
8562;SDS011;16392;52.508;13.468;2023-08-20T03:27:39;674.95;;;610.88;;
8562;SDS011;16392;52.508;13.468;2023-08-20T03:30:07;642.60;;;580.40;;
8562;SDS011;16392;52.508;13.468;2023-08-20T03:32:34;662.60;;;599.03;;
8562;SDS011;16392;52.508;13.468;2023-08-20T03:35:01;650.22;;;587.30;;
8562;SDS011;16392;52.508;13.468;2023-08-20T03:37:28;649.38;;;586.42;;
8562;SDS011;16392;52.508;13.468;2023-08-20T03:39:55;646.50;;;583.92;;
8562;SDS011;16392;52.508;13.468;2023-08-20T03:42:21;653.22;;;590.08;;
8562;SDS011;16392;52.508;13.468;2023-08-20T03:44:48;671.97;;;608.28;;
8562;SDS011;16392;52.508;13.468;2023-08-20T03:47:16;656.65;;;593.95;;
8562;SDS011;16392;52.508;13.468;2023-08-20T03:49:45;640.30;;;577.90;;
8562;SDS011;16392;52.508;13.468;2023-08-20T03:52:12;649.55;;;586.78;;
8562;SDS011;16392;52.508;13.468;2023-08-20T03:54:38;644.63;;;582.00;;
8562;SDS011;16392;52.508;13.468;2023-08-20T03:57:05;639.45;;;577.13;;
8562;SDS011;16392;52.508;13.468;2023-08-20T03:59:31;631.78;;;569.17;;
8562;SDS011;16392;52.508;13.468;2023-08-20T04:01:58;643.60;;;580.97;;
8562;SDS011;16392;52.508;13.468;2023-08-20T04:04:26;664.22;;;601.05;;
8562;SDS011;16392;52.508;13.468;2023-08-20T04:06:53;661.10;;;597.67;;
8562;SDS011;16392;52.508;13.468;2023-08-20T04:09:19;655.65;;;592.60;;
8562;SDS011;16392;52.508;13.468;2023-08-20T04:11:46;644.60;;;581.90;;
8562;SDS011;16392;52.508;13.468;2023-08-20T04:14:13;634.13;;;571.40;;
8562;SDS011;16392;52.508;13.468;2023-08-20T04:16:39;640.47;;;577.78;;
8562;SDS011;16392;52.508;13.468;2023-08-20T04:19:06;653.22;;;590.03;;
8562;SDS011;16392;52.508;13.468;2023-08-20T04:21:34;632.78;;;570.65;;
8562;SDS011;16392;52.508;13.468;2023-08-20T04:24:00;630.95;;;568.78;;
8562;SDS011;16392;52.508;13.468;2023-08-20T04:26:27;643.28;;;580.65;;
8562;SDS011;16392;52.508;13.468;2023-08-20T04:28:54;629.60;;;567.85;;
8562;SDS011;16392;52.508;13.468;2023-08-20T04:31:21;649.58;;;586.88;;
8562;SDS011;16392;52.508;13.468;2023-08-20T04:33:47;607.22;;;545.55;;
8562;SDS011;16392;52.508;13.468;2023-08-20T04:36:14;638.00;;;575.58;;
8562;SDS011;16392;52.508;13.468;2023-08-20T04:38:42;620.78;;;558.78;;
8562;SDS011;16392;52.508;13.468;2023-08-20T04:41:08;663.17;;;599.90;;
8562;SDS011;16392;52.508;13.468;2023-08-20T04:43:35;635.47;;;573.22;;
8562;SDS011;16392;52.508;13.468;2023-08-20T04:46:02;654.47;;;591.55;;
8562;SDS011;16392;52.508;13.468;2023-08-20T04:48:28;681.45;;;617.85;;
8562;SDS011;16392;52.508;13.468;2023-08-20T04:50:55;685.15;;;621.30;;
8562;SDS011;16392;52.508;13.468;2023-08-20T04:53:22;683.85;;;619.90;;
8562;SDS011;16392;52.508;13.468;2023-08-20T04:55:50;675.42;;;612.05;;
8562;SDS011;16392;52.508;13.468;2023-08-20T04:58:16;695.63;;;631.28;;
8562;SDS011;16392;52.508;13.468;2023-08-20T05:00:43;699.53;;;634.95;;
8562;SDS011;16392;52.508;13.468;2023-08-20T05:03:09;700.47;;;635.80;;
8562;SDS011;16392;52.508;13.468;2023-08-20T05:05:36;709.45;;;644.85;;
8562;SDS011;16392;52.508;13.468;2023-08-20T05:08:03;691.50;;;627.97;;
8562;SDS011;16392;52.508;13.468;2023-08-20T05:10:30;663.70;;;600.92;;
8562;SDS011;16392;52.508;13.468;2023-08-20T05:12:57;660.35;;;597.75;;
8562;SDS011;16392;52.508;13.468;2023-08-20T05:15:24;692.40;;;628.75;;
8562;SDS011;16392;52.508;13.468;2023-08-20T05:17:51;690.25;;;626.42;;
8562;SDS011;16392;52.508;13.468;2023-08-20T05:20:17;699.65;;;635.63;;
8562;SDS011;16392;52.508;13.468;2023-08-20T05:22:44;714.38;;;649.88;;
8562;SDS011;16392;52.508;13.468;2023-08-20T05:25:10;726.92;;;662.08;;
8562;SDS011;16392;52.508;13.468;2023-08-20T05:27:37;715.72;;;651.45;;
8562;SDS011;16392;52.508;13.468;2023-08-20T05:30:06;737.10;;;671.75;;
8562;SDS011;16392;52.508;13.468;2023-08-20T05:32:33;695.80;;;631.88;;
8562;SDS011;16392;52.508;13.468;2023-08-20T05:35:00;720.22;;;655.90;;
8562;SDS011;16392;52.508;13.468;2023-08-20T05:37:29;739.78;;;674.33;;
8562;SDS011;16392;52.508;13.468;2023-08-20T05:39:56;746.28;;;680.45;;
8562;SDS011;16392;52.508;13.468;2023-08-20T05:42:22;745.83;;;679.97;;
8562;SDS011;16392;52.508;13.468;2023-08-20T05:44:49;747.95;;;682.20;;
8562;SDS011;16392;52.508;13.468;2023-08-20T05:47:17;742.20;;;676.40;;
8562;SDS011;16392;52.508;13.468;2023-08-20T05:49:44;736.13;;;670.70;;
8562;SDS011;16392;52.508;13.468;2023-08-20T05:52:10;750.78;;;685.47;;
8562;SDS011;16392;52.508;13.468;2023-08-20T05:54:37;753.08;;;687.55;;
8562;SDS011;16392;52.508;13.468;2023-08-20T05:57:04;753.88;;;688.30;;
8562;SDS011;16392;52.508;13.468;2023-08-20T05:59:31;752.08;;;686.78;;
8562;SDS011;16392;52.508;13.468;2023-08-20T06:01:57;741.25;;;676.15;;
8562;SDS011;16392;52.508;13.468;2023-08-20T06:04:25;754.10;;;688.47;;
8562;SDS011;16392;52.508;13.468;2023-08-20T06:06:52;740.58;;;675.55;;
8562;SDS011;16392;52.508;13.468;2023-08-20T06:09:19;740.58;;;675.63;;
8562;SDS011;16392;52.508;13.468;2023-08-20T06:11:45;746.72;;;681.42;;
8562;SDS011;16392;52.508;13.468;2023-08-20T06:14:13;745.08;;;679.70;;
8562;SDS011;16392;52.508;13.468;2023-08-20T06:16:41;749.65;;;683.72;;
8562;SDS011;16392;52.508;13.468;2023-08-20T06:19:07;747.33;;;682.03;;
8562;SDS011;16392;52.508;13.468;2023-08-20T06:21:35;768.92;;;702.55;;
8562;SDS011;16392;52.508;13.468;2023-08-20T06:24:02;761.65;;;695.75;;
8562;SDS011;16392;52.508;13.468;2023-08-20T06:26:29;756.47;;;690.60;;
8562;SDS011;16392;52.508;13.468;2023-08-20T06:28:55;757.47;;;691.97;;
8562;SDS011;16392;52.508;13.468;2023-08-20T06:31:22;740.83;;;675.65;;
8562;SDS011;16392;52.508;13.468;2023-08-20T06:33:48;739.28;;;673.95;;
8562;SDS011;16392;52.508;13.468;2023-08-20T06:36:15;731.78;;;666.83;;
8562;SDS011;16392;52.508;13.468;2023-08-20T06:38:57;744.70;;;678.97;;
8562;SDS011;16392;52.508;13.468;2023-08-20T06:41:23;727.00;;;662.08;;
8562;SDS011;16392;52.508;13.468;2023-08-20T06:43:50;743.33;;;678.00;;
8562;SDS011;16392;52.508;13.468;2023-08-20T06:46:17;736.20;;;670.50;;
8562;SDS011;16392;52.508;13.468;2023-08-20T06:48:44;728.65;;;663.80;;
8562;SDS011;16392;52.508;13.468;2023-08-20T06:51:11;738.42;;;673.00;;
8562;SDS011;16392;52.508;13.468;2023-08-20T06:53:38;748.50;;;682.70;;
8562;SDS011;16392;52.508;13.468;2023-08-20T06:56:10;753.53;;;686.50;;
8562;SDS011;16392;52.508;13.468;2023-08-20T06:58:41;759.10;;;693.13;;
8562;SDS011;16392;52.508;13.468;2023-08-20T07:01:08;731.63;;;666.88;;
8562;SDS011;16392;52.508;13.468;2023-08-20T07:03:37;732.33;;;667.13;;
8562;SDS011;16392;52.508;13.468;2023-08-20T07:06:05;747.95;;;682.20;;
8562;SDS011;16392;52.508;13.468;2023-08-20T07:08:32;736.40;;;671.03;;
8562;SDS011;16392;52.508;13.468;2023-08-20T07:10:59;730.80;;;665.70;;
8562;SDS011;16392;52.508;13.468;2023-08-20T07:13:27;732.63;;;667.42;;
8562;SDS011;16392;52.508;13.468;2023-08-20T07:15:53;745.75;;;679.67;;
8562;SDS011;16392;52.508;13.468;2023-08-20T07:18:20;732.25;;;667.05;;
8562;SDS011;16392;52.508;13.468;2023-08-20T07:20:47;722.13;;;657.58;;
8562;SDS011;16392;52.508;13.468;2023-08-20T07:23:13;725.13;;;660.53;;
8562;SDS011;16392;52.508;13.468;2023-08-20T07:25:40;742.38;;;676.90;;
8562;SDS011;16392;52.508;13.468;2023-08-20T07:28:09;722.72;;;657.92;;
8562;SDS011;16392;52.508;13.468;2023-08-20T07:30:37;736.75;;;671.33;;
8562;SDS011;16392;52.508;13.468;2023-08-20T07:33:04;746.65;;;681.05;;
8562;SDS011;16392;52.508;13.468;2023-08-20T07:35:31;740.97;;;675.47;;
8562;SDS011;16392;52.508;13.468;2023-08-20T07:37:58;739.67;;;674.33;;
8562;SDS011;16392;52.508;13.468;2023-08-20T07:40:24;748.33;;;682.70;;
8562;SDS011;16392;52.508;13.468;2023-08-20T07:42:51;771.10;;;704.20;;
8562;SDS011;16392;52.508;13.468;2023-08-20T07:45:17;766.90;;;700.72;;
8562;SDS011;16392;52.508;13.468;2023-08-20T07:47:45;771.75;;;705.25;;
8562;SDS011;16392;52.508;13.468;2023-08-20T07:50:12;773.33;;;707.53;;
8562;SDS011;16392;52.508;13.468;2023-08-20T07:52:39;791.60;;;724.83;;
8562;SDS011;16392;52.508;13.468;2023-08-20T07:55:05;791.83;;;725.03;;
8562;SDS011;16392;52.508;13.468;2023-08-20T07:57:33;796.08;;;729.30;;
8562;SDS011;16392;52.508;13.468;2023-08-20T07:59:59;767.38;;;701.67;;
8562;SDS011;16392;52.508;13.468;2023-08-20T08:02:28;764.92;;;698.97;;
8562;SDS011;16392;52.508;13.468;2023-08-20T08:04:56;779.10;;;712.25;;
8562;SDS011;16392;52.508;13.468;2023-08-20T08:07:23;760.53;;;694.45;;
8562;SDS011;16392;52.508;13.468;2023-08-20T08:09:49;757.53;;;692.00;;
8562;SDS011;16392;52.508;13.468;2023-08-20T08:12:16;775.28;;;708.90;;
8562;SDS011;16392;52.508;13.468;2023-08-20T08:14:42;770.50;;;704.00;;
8562;SDS011;16392;52.508;13.468;2023-08-20T08:17:09;770.90;;;704.97;;
8562;SDS011;16392;52.508;13.468;2023-08-20T08:19:35;774.92;;;709.15;;
8562;SDS011;16392;52.508;13.468;2023-08-20T08:22:04;769.47;;;703.83;;
8562;SDS011;16392;52.508;13.468;2023-08-20T08:24:30;758.25;;;692.67;;
8562;SDS011;16392;52.508;13.468;2023-08-20T08:26:57;775.92;;;710.25;;
8562;SDS011;16392;52.508;13.468;2023-08-20T08:29:24;790.70;;;724.17;;
8562;SDS011;16392;52.508;13.468;2023-08-20T08:31:50;817.28;;;750.60;;
8562;SDS011;16392;52.508;13.468;2023-08-20T08:34:17;808.63;;;741.70;;
8562;SDS011;16392;52.508;13.468;2023-08-20T08:36:44;808.05;;;741.38;;
8562;SDS011;16392;52.508;13.468;2023-08-20T08:39:13;808.20;;;741.72;;
8562;SDS011;16392;52.508;13.468;2023-08-20T08:41:39;838.15;;;770.53;;
8562;SDS011;16392;52.508;13.468;2023-08-20T08:44:08;855.15;;;787.20;;
8562;SDS011;16392;52.508;13.468;2023-08-20T08:46:36;834.95;;;767.65;;
8562;SDS011;16392;52.508;13.468;2023-08-20T08:49:04;872.60;;;803.72;;
8562;SDS011;16392;52.508;13.468;2023-08-20T08:51:33;868.95;;;800.88;;
8562;SDS011;16392;52.508;13.468;2023-08-20T08:54:01;871.60;;;802.78;;
8562;SDS011;16392;52.508;13.468;2023-08-20T08:56:29;894.58;;;824.67;;
8562;SDS011;16392;52.508;13.468;2023-08-20T08:58:56;901.33;;;831.17;;
8562;SDS011;16392;52.508;13.468;2023-08-20T09:01:23;939.78;;;867.25;;
8562;SDS011;16392;52.508;13.468;2023-08-20T09:03:50;955.10;;;882.03;;
8562;SDS011;16392;52.508;13.468;2023-08-20T09:06:17;971.30;;;897.33;;
8562;SDS011;16392;52.508;13.468;2023-08-20T09:08:43;971.58;;;897.50;;
8562;SDS011;16392;52.508;13.468;2023-08-20T09:11:11;982.88;;;907.90;;
8562;SDS011;16392;52.508;13.468;2023-08-20T09:13:39;991.53;;;915.92;;
8562;SDS011;16392;52.508;13.468;2023-08-20T09:16:09;985.60;;;910.58;;
8562;SDS011;16392;52.508;13.468;2023-08-20T09:18:37;997.70;;;922.08;;
8562;SDS011;16392;52.508;13.468;2023-08-20T09:21:06;996.80;;;921.50;;
8562;SDS011;16392;52.508;13.468;2023-08-20T09:23:33;1010.03;;;933.42;;
8562;SDS011;16392;52.508;13.468;2023-08-20T09:26:01;1024.55;;;946.38;;
8562;SDS011;16392;52.508;13.468;2023-08-20T09:28:29;1028.70;;;950.35;;
8562;SDS011;16392;52.508;13.468;2023-08-20T09:31:08;1028.57;;;949.75;;
8562;SDS011;16392;52.508;13.468;2023-08-20T09:33:34;1040.95;;;960.33;;
8562;SDS011;16392;52.508;13.468;2023-08-20T09:36:02;1026.05;;;945.95;;
8562;SDS011;16392;52.508;13.468;2023-08-20T09:38:29;1037.05;;;956.50;;
8562;SDS011;16392;52.508;13.468;2023-08-20T09:41:02;1049.90;;;968.03;;
8562;SDS011;16392;52.508;13.468;2023-08-20T09:43:30;1039.07;;;957.63;;
8562;SDS011;16392;52.508;13.468;2023-08-20T09:45:59;1028.78;;;947.42;;
8562;SDS011;16392;52.508;13.468;2023-08-20T09:48:29;1041.22;;;958.38;;
8562;SDS011;16392;52.508;13.468;2023-08-20T09:51:01;1052.60;;;969.13;;
8562;SDS011;16392;52.508;13.468;2023-08-20T09:53:33;1048.57;;;964.72;;
8562;SDS011;16392;52.508;13.468;2023-08-20T09:56:03;1044.47;;;960.75;;
8562;SDS011;16392;52.508;13.468;2023-08-20T09:58:35;1046.25;;;962.00;;
8562;SDS011;16392;52.508;13.468;2023-08-20T10:01:04;1054.40;;;969.40;;
8562;SDS011;16392;52.508;13.468;2023-08-20T10:03:33;1044.97;;;959.70;;
8562;SDS011;16392;52.508;13.468;2023-08-20T10:05:59;1049.88;;;963.88;;
8562;SDS011;16392;52.508;13.468;2023-08-20T10:08:27;1047.82;;;962.33;;
8562;SDS011;16392;52.508;13.468;2023-08-20T10:10:53;1038.70;;;953.63;;
8562;SDS011;16392;52.508;13.468;2023-08-20T10:13:20;1037.43;;;952.05;;
8562;SDS011;16392;52.508;13.468;2023-08-20T10:15:48;1036.35;;;951.08;;
8562;SDS011;16392;52.508;13.468;2023-08-20T10:18:15;1036.07;;;950.83;;
8562;SDS011;16392;52.508;13.468;2023-08-20T10:20:47;1030.18;;;945.13;;
8562;SDS011;16392;52.508;13.468;2023-08-20T10:23:17;1021.28;;;936.80;;
8562;SDS011;16392;52.508;13.468;2023-08-20T10:25:54;1025.40;;;941.13;;
8562;SDS011;16392;52.508;13.468;2023-08-20T10:28:32;1026.05;;;940.40;;
8562;SDS011;16392;52.508;13.468;2023-08-20T10:31:06;1013.72;;;928.80;;
8562;SDS011;16392;52.508;13.468;2023-08-20T10:33:48;1026.90;;;941.10;;
8562;SDS011;16392;52.508;13.468;2023-08-20T10:36:18;1035.50;;;949.10;;
8562;SDS011;16392;52.508;13.468;2023-08-20T10:38:47;1024.75;;;938.92;;
8562;SDS011;16392;52.508;13.468;2023-08-20T10:41:15;1020.38;;;934.83;;
8562;SDS011;16392;52.508;13.468;2023-08-20T10:43:50;1032.18;;;945.38;;
8562;SDS011;16392;52.508;13.468;2023-08-20T10:46:17;1027.35;;;940.83;;
8562;SDS011;16392;52.508;13.468;2023-08-20T10:48:46;1035.18;;;948.58;;
8562;SDS011;16392;52.508;13.468;2023-08-20T10:51:14;1027.65;;;941.95;;
8562;SDS011;16392;52.508;13.468;2023-08-20T10:54:03;1020.92;;;935.40;;
8562;SDS011;16392;52.508;13.468;2023-08-20T10:56:38;1033.55;;;947.20;;
8562;SDS011;16392;52.508;13.468;2023-08-20T10:59:06;1038.07;;;951.35;;
8562;SDS011;16392;52.508;13.468;2023-08-20T11:01:35;1039.95;;;953.40;;
8562;SDS011;16392;52.508;13.468;2023-08-20T11:04:03;1034.97;;;948.30;;
8562;SDS011;16392;52.508;13.468;2023-08-20T11:06:32;1029.05;;;943.08;;
8562;SDS011;16392;52.508;13.468;2023-08-20T11:08:59;1027.72;;;941.42;;
8562;SDS011;16392;52.508;13.468;2023-08-20T11:11:29;1019.08;;;933.83;;
8562;SDS011;16392;52.508;13.468;2023-08-20T11:13:56;1020.40;;;936.15;;
8562;SDS011;16392;52.508;13.468;2023-08-20T11:16:23;1025.47;;;940.65;;
8562;SDS011;16392;52.508;13.468;2023-08-20T11:18:51;1016.65;;;932.33;;
8562;SDS011;16392;52.508;13.468;2023-08-20T11:21:18;1022.33;;;936.83;;
8562;SDS011;16392;52.508;13.468;2023-08-20T11:23:46;1020.67;;;935.45;;
8562;SDS011;16392;52.508;13.468;2023-08-20T11:26:17;1019.42;;;934.92;;
8562;SDS011;16392;52.508;13.468;2023-08-20T11:28:46;1017.88;;;932.80;;
8562;SDS011;16392;52.508;13.468;2023-08-20T11:31:13;1012.50;;;928.28;;
8562;SDS011;16392;52.508;13.468;2023-08-20T11:33:39;1020.60;;;935.92;;
8562;SDS011;16392;52.508;13.468;2023-08-20T11:36:06;1014.63;;;929.90;;
8562;SDS011;16392;52.508;13.468;2023-08-20T11:38:33;1016.72;;;931.40;;
8562;SDS011;16392;52.508;13.468;2023-08-20T11:40:59;1019.28;;;933.83;;
8562;SDS011;16392;52.508;13.468;2023-08-20T11:43:26;1024.28;;;938.70;;
8562;SDS011;16392;52.508;13.468;2023-08-20T11:45:54;1016.60;;;931.63;;
8562;SDS011;16392;52.508;13.468;2023-08-20T11:48:21;1004.33;;;919.38;;
8562;SDS011;16392;52.508;13.468;2023-08-20T11:50:49;1015.03;;;929.75;;
8562;SDS011;16392;52.508;13.468;2023-08-20T11:53:20;1012.38;;;927.40;;
8562;SDS011;16392;52.508;13.468;2023-08-20T11:55:48;1006.97;;;922.58;;
8562;SDS011;16392;52.508;13.468;2023-08-20T11:58:16;1014.53;;;929.58;;
8562;SDS011;16392;52.508;13.468;2023-08-20T12:00:48;1007.97;;;923.55;;
8562;SDS011;16392;52.508;13.468;2023-08-20T12:03:17;1011.78;;;927.53;;
8562;SDS011;16392;52.508;13.468;2023-08-20T12:05:44;1006.70;;;922.65;;
8562;SDS011;16392;52.508;13.468;2023-08-20T12:08:14;1010.17;;;926.08;;
8562;SDS011;16392;52.508;13.468;2023-08-20T12:10:46;1008.17;;;924.70;;
8562;SDS011;16392;52.508;13.468;2023-08-20T12:13:19;1004.00;;;920.78;;
8562;SDS011;16392;52.508;13.468;2023-08-20T12:15:47;1009.35;;;925.97;;
8562;SDS011;16392;52.508;13.468;2023-08-20T12:18:14;1013.13;;;930.17;;
8562;SDS011;16392;52.508;13.468;2023-08-20T12:20:42;1016.72;;;933.40;;
8562;SDS011;16392;52.508;13.468;2023-08-20T12:23:09;1013.75;;;930.72;;
8562;SDS011;16392;52.508;13.468;2023-08-20T12:25:37;1027.88;;;943.50;;
8562;SDS011;16392;52.508;13.468;2023-08-20T12:28:04;1019.17;;;935.60;;
8562;SDS011;16392;52.508;13.468;2023-08-20T12:30:32;1016.55;;;933.63;;
8562;SDS011;16392;52.508;13.468;2023-08-20T12:33:01;1030.20;;;945.35;;
8562;SDS011;16392;52.508;13.468;2023-08-20T12:35:29;1030.38;;;946.38;;
8562;SDS011;16392;52.508;13.468;2023-08-20T12:37:57;1023.33;;;940.33;;
8562;SDS011;16392;52.508;13.468;2023-08-20T12:40:24;1042.65;;;958.97;;
8562;SDS011;16392;52.508;13.468;2023-08-20T12:42:51;1041.05;;;957.83;;
8562;SDS011;16392;52.508;13.468;2023-08-20T12:45:22;1037.50;;;953.50;;
8562;SDS011;16392;52.508;13.468;2023-08-20T12:47:50;1031.90;;;948.22;;
8562;SDS011;16392;52.508;13.468;2023-08-20T12:50:17;1026.15;;;943.20;;
8562;SDS011;16392;52.508;13.468;2023-08-20T12:52:44;1028.85;;;946.05;;
8562;SDS011;16392;52.508;13.468;2023-08-20T12:55:15;1042.38;;;958.00;;
8562;SDS011;16392;52.508;13.468;2023-08-20T12:57:51;1046.30;;;960.53;;
8562;SDS011;16392;52.508;13.468;2023-08-20T13:00:20;1055.05;;;968.92;;
8562;SDS011;16392;52.508;13.468;2023-08-20T13:02:47;1037.47;;;952.67;;
8562;SDS011;16392;52.508;13.468;2023-08-20T13:05:15;1052.60;;;967.80;;
8562;SDS011;16392;52.508;13.468;2023-08-20T13:07:42;1042.88;;;958.13;;
8562;SDS011;16392;52.508;13.468;2023-08-20T13:10:09;1041.00;;;958.03;;
8562;SDS011;16392;52.508;13.468;2023-08-20T13:12:39;1026.68;;;944.90;;
8562;SDS011;16392;52.508;13.468;2023-08-20T13:15:08;1030.90;;;949.08;;
8562;SDS011;16392;52.508;13.468;2023-08-20T13:17:36;1030.47;;;948.25;;
8562;SDS011;16392;52.508;13.468;2023-08-20T13:20:04;1031.10;;;949.10;;
8562;SDS011;16392;52.508;13.468;2023-08-20T13:22:33;1029.57;;;947.70;;
8562;SDS011;16392;52.508;13.468;2023-08-20T13:25:01;1032.90;;;948.80;;
8562;SDS011;16392;52.508;13.468;2023-08-20T13:27:29;1041.45;;;956.78;;
8562;SDS011;16392;52.508;13.468;2023-08-20T13:29:57;1028.93;;;944.65;;
8562;SDS011;16392;52.508;13.468;2023-08-20T13:32:24;1015.67;;;932.88;;
8562;SDS011;16392;52.508;13.468;2023-08-20T13:34:51;1013.67;;;932.33;;
8562;SDS011;16392;52.508;13.468;2023-08-20T13:37:18;1005.55;;;924.33;;
8562;SDS011;16392;52.508;13.468;2023-08-20T13:39:45;1001.13;;;920.33;;
8562;SDS011;16392;52.508;13.468;2023-08-20T13:42:11;998.35;;;917.15;;
8562;SDS011;16392;52.508;13.468;2023-08-20T13:44:41;985.22;;;905.22;;
8562;SDS011;16392;52.508;13.468;2023-08-20T13:47:09;999.33;;;917.95;;
8562;SDS011;16392;52.508;13.468;2023-08-20T13:49:36;987.78;;;907.22;;
8562;SDS011;16392;52.508;13.468;2023-08-20T13:52:04;996.92;;;916.17;;
8562;SDS011;16392;52.508;13.468;2023-08-20T13:54:32;994.90;;;914.38;;
8562;SDS011;16392;52.508;13.468;2023-08-20T13:56:58;982.70;;;902.30;;
8562;SDS011;16392;52.508;13.468;2023-08-20T13:59:25;993.33;;;913.60;;